Time,TemperatureF,DewpointF,PressureIn,WindDirection,WindDirectionDegrees,WindSpeedMPH,WindSpeedGustMPH,Humidity,HourlyPrecipIn,Conditions,Clouds,dailyrainin,SoftwareType,DateUTC
2013-05-10 00:04:00,61.7,61.4,29.55,SE,135,0.0,-999.0,99,-99.99,,,0.00,Acu-Link.com,2013-05-10 05:04:00,
2013-05-10 00:19:00,61.7,61.4,29.55,SSE,157,0.0,-999.0,99,-99.99,,,0.00,Acu-Link.com,2013-05-10 05:19:00,
2013-05-10 00:34:00,61.5,61.2,29.55,SE,135,3.7,-999.0,99,-99.99,,,0.00,Acu-Link.com,2013-05-10 05:34:00,
2013-05-10 00:49:00,61.2,60.9,29.55,SSW,202,0.0,-999.0,99,-99.99,,,0.00,Acu-Link.com,2013-05-10 05:49:00,
2013-05-10 01:04:00,61.0,60.7,29.55,SSW,202,0.0,-999.0,99,-99.99,,,0.00,Acu-Link.com,2013-05-10 06:04:00,
2013-05-10 01:20:00,60.6,60.3,29.55,SW,225,0.0,-999.0,99,-99.99,,,0.00,Acu-Link.com,2013-05-10 06:20:00,
2013-05-10 01:35:00,60.4,60.1,29.56,SE,135,0.0,-999.0,99,-99.99,,,0.00,Acu-Link.com,2013-05-10 06:35:00,
2013-05-10 01:50:00,60.4,60.1,29.55,NW,315,0.0,-999.0,99,-99.99,,,0.00,Acu-Link.com,2013-05-10 06:50:00,
2013-05-10 02:06:00,60.1,59.8,29.55,SSE,157,0.0,-999.0,99,-99.99,,,0.00,Acu-Link.com,2013-05-10 07:06:00,
2013-05-10 02:21:00,59.9,59.6,29.55,South,180,0.0,-999.0,99,-99.99,,,0.00,Acu-Link.com,2013-05-10 07:21:00,
2013-05-10 02:36:00,59.9,59.6,29.56,South,180,0.0,-999.0,99,-99.99,,,0.00,Acu-Link.com,2013-05-10 07:36:00,
2013-05-10 02:51:00,59.9,59.6,29.55,South,180,0.0,-999.0,99,-99.99,,,0.00,Acu-Link.com,2013-05-10 07:51:00,
2013-05-10 03:07:00,59.9,59.6,29.56,West,270,0.0,-999.0,99,-99.99,,,0.00,Acu-Link.com,2013-05-10 08:07:00,
2013-05-10 03:22:00,59.9,59.6,29.55,NNE,22,0.0,-999.0,99,-99.99,,,0.00,Acu-Link.com,2013-05-10 08:22:00,
2013-05-10 03:37:00,59.9,59.6,29.55,ESE,112,0.0,-999.0,99,-99.99,,,0.00,Acu-Link.com,2013-05-10 08:37:00,
2013-05-10 03:52:00,59.7,59.4,29.55,WNW,292,0.0,-999.0,99,-99.99,,,0.00,Acu-Link.com,2013-05-10 08:52:00,
2013-05-10 04:07:00,59.5,59.2,29.55,SSE,157,0.0,-999.0,99,-99.99,,,0.00,Acu-Link.com,2013-05-10 09:07:00,
2013-05-10 04:22:00,59.4,59.1,29.55,West,270,0.0,-999.0,99,-99.99,,,0.00,Acu-Link.com,2013-05-10 09:22:00,
2013-05-10 04:37:00,59.4,59.1,29.54,WNW,292,0.0,-999.0,99,-99.99,,,0.00,Acu-Link.com,2013-05-10 09:37:00,
2013-05-10 04:52:00,59.2,58.9,29.55,West,270,0.0,-999.0,99,-99.99,,,0.00,Acu-Link.com,2013-05-10 09:52:00,
2013-05-10 05:08:00,59.2,58.9,29.56,WNW,292,0.0,-999.0,99,-99.99,,,0.00,Acu-Link.com,2013-05-10 10:08:00,
2013-05-10 05:23:00,58.8,58.5,29.56,WNW,292,0.0,-999.0,99,-99.99,,,0.00,Acu-Link.com,2013-05-10 10:23:00,
2013-05-10 05:38:00,58.5,58.2,29.56,West,270,0.0,-999.0,99,-99.99,,,0.00,Acu-Link.com,2013-05-10 10:38:00,
2013-05-10 05:53:00,58.1,57.8,29.57,West,270,0.0,-999.0,99,-99.99,,,0.00,Acu-Link.com,2013-05-10 10:53:00,
2013-05-10 06:09:00,58.1,57.8,29.58,West,270,0.0,-999.0,99,-99.99,,,0.00,Acu-Link.com,2013-05-10 11:09:00,
2013-05-10 06:24:00,58.1,57.8,29.58,WNW,292,0.0,-999.0,99,-99.99,,,0.00,Acu-Link.com,2013-05-10 11:24:00,
2013-05-10 06:39:00,57.9,57.6,29.58,WNW,292,0.0,-999.0,99,-99.99,,,0.00,Acu-Link.com,2013-05-10 11:39:00,
2013-05-10 06:55:00,55.9,55.6,29.61,East,90,0.0,-999.0,99,-99.99,,,0.01,Acu-Link.com,2013-05-10 11:55:00,
2013-05-10 07:10:00,53.4,53.1,29.60,South,180,5.3,-999.0,99,-99.99,,,0.01,Acu-Link.com,2013-05-10 12:10:00,
2013-05-10 07:25:00,52.2,51.9,29.61,ESE,112,0.0,-999.0,99,-99.99,,,0.01,Acu-Link.com,2013-05-10 12:25:00,
2013-05-10 07:40:00,51.4,51.1,29.62,ESE,112,3.7,-999.0,99,-99.99,,,0.01,Acu-Link.com,2013-05-10 12:40:00,
2013-05-10 07:55:00,50.7,50.4,29.62,ESE,112,0.0,-999.0,99,-99.99,,,0.01,Acu-Link.com,2013-05-10 12:55:00,
2013-05-10 08:11:00,50.7,50.4,29.63,NW,315,0.0,-999.0,99,-99.99,,,0.01,Acu-Link.com,2013-05-10 13:11:00,
2013-05-10 08:26:00,50.4,50.1,29.63,WNW,292,0.0,-999.0,99,-99.99,,,0.01,Acu-Link.com,2013-05-10 13:26:00,
2013-05-10 08:41:00,50.2,49.9,29.64,WNW,292,0.0,-999.0,99,-99.99,,,0.01,Acu-Link.com,2013-05-10 13:41:00,
2013-05-10 08:56:00,50.0,49.7,29.65,WNW,292,1.7,-999.0,99,-99.99,,,0.01,Acu-Link.com,2013-05-10 13:56:00,
2013-05-10 09:12:00,50.4,50.1,29.65,NNE,22,4.7,-999.0,99,-99.99,,,0.01,Acu-Link.com,2013-05-10 14:12:00,
2013-05-10 09:27:00,50.4,49.9,29.64,ENE,67,5.8,-999.0,98,-99.99,,,0.01,Acu-Link.com,2013-05-10 14:27:00,
2013-05-10 09:42:00,50.0,49.2,29.66,SSW,202,0.0,-999.0,97,-99.99,,,0.01,Acu-Link.com,2013-05-10 14:42:00,
2013-05-10 09:58:00,50.0,49.5,29.65,NW,315,3.2,-999.0,98,-99.99,,,0.01,Acu-Link.com,2013-05-10 14:58:00,
2013-05-10 10:13:00,50.2,49.4,29.66,WNW,292,0.0,-999.0,97,-99.99,,,0.01,Acu-Link.com,2013-05-10 15:13:00,
2013-05-10 10:28:00,50.5,49.7,29.66,WNW,292,0.0,-999.0,97,-99.99,,,0.01,Acu-Link.com,2013-05-10 15:28:00,
2013-05-10 10:43:00,51.6,50.5,29.66,East,90,0.0,-999.0,96,-99.99,,,0.01,Acu-Link.com,2013-05-10 15:43:00,
2013-05-10 10:58:00,52.5,49.9,29.67,East,90,0.0,-999.0,91,-99.99,,,0.01,Acu-Link.com,2013-05-10 15:58:00,
2013-05-10 11:14:00,53.1,49.9,29.67,WNW,292,0.0,-999.0,89,-99.99,,,0.01,Acu-Link.com,2013-05-10 16:14:00,
2013-05-10 11:29:00,54.0,50.5,29.68,NW,315,1.7,-999.0,88,-99.99,,,0.01,Acu-Link.com,2013-05-10 16:29:00,
2013-05-10 11:44:00,53.8,50.3,29.67,NW,315,4.7,-999.0,88,-99.99,,,0.01,Acu-Link.com,2013-05-10 16:44:00,
2013-05-10 12:00:00,54.7,50.9,29.69,ESE,112,0.0,-999.0,87,-99.99,,,0.01,Acu-Link.com,2013-05-10 17:00:00,
2013-05-10 12:15:00,54.1,50.0,29.68,WNW,292,2.7,-999.0,86,-99.99,,,0.01,Acu-Link.com,2013-05-10 17:15:00,
2013-05-10 12:30:00,55.2,51.1,29.68,NW,315,0.0,-999.0,86,-99.99,,,0.01,Acu-Link.com,2013-05-10 17:30:00,
2013-05-10 12:46:00,56.1,51.3,29.68,ESE,112,0.0,-999.0,84,-99.99,,,0.01,Acu-Link.com,2013-05-10 17:46:00,
2013-05-10 13:01:00,55.6,50.2,29.68,ENE,67,2.7,-999.0,82,-99.99,,,0.01,Acu-Link.com,2013-05-10 18:01:00,
2013-05-10 13:16:00,54.9,50.2,29.69,SSE,157,0.0,-999.0,84,-99.99,,,0.01,Acu-Link.com,2013-05-10 18:16:00,
2013-05-10 13:31:00,55.0,49.9,29.68,East,90,2.7,-999.0,83,-99.99,,,0.01,Acu-Link.com,2013-05-10 18:31:00,
2013-05-10 13:46:00,55.2,49.8,29.68,ESE,112,0.0,-999.0,82,-99.99,,,0.01,Acu-Link.com,2013-05-10 18:46:00,
2013-05-10 14:01:00,54.7,49.6,29.68,East,90,4.2,-999.0,83,-99.99,,,0.01,Acu-Link.com,2013-05-10 19:01:00,
2013-05-10 14:17:00,54.7,49.6,29.68,WNW,292,0.0,-999.0,83,-99.99,,,0.01,Acu-Link.com,2013-05-10 19:17:00,
2013-05-10 14:32:00,53.6,49.5,29.69,WNW,292,1.1,-999.0,86,-99.99,,,0.01,Acu-Link.com,2013-05-10 19:32:00,
2013-05-10 14:47:00,53.6,49.8,29.69,NW,315,0.0,-999.0,87,-99.99,,,0.01,Acu-Link.com,2013-05-10 19:47:00,
2013-05-10 15:02:00,53.1,49.3,29.70,ESE,112,4.7,-999.0,87,-99.99,,,0.01,Acu-Link.com,2013-05-10 20:02:00,
2013-05-10 15:18:00,52.5,49.0,29.70,SSE,157,0.0,-999.0,88,-99.99,,,0.01,Acu-Link.com,2013-05-10 20:18:00,
2013-05-10 15:33:00,52.5,49.4,29.70,SSE,157,0.0,-999.0,89,-99.99,,,0.01,Acu-Link.com,2013-05-10 20:33:00,
2013-05-10 15:48:00,52.2,49.1,29.70,NE,45,0.0,-999.0,89,-99.99,,,0.01,Acu-Link.com,2013-05-10 20:48:00,
2013-05-10 16:04:00,51.8,49.0,29.71,NW,315,0.0,-999.0,90,-99.99,,,0.01,Acu-Link.com,2013-05-10 21:04:00,
2013-05-10 16:19:00,52.0,49.2,29.71,SE,135,0.0,-999.0,90,-99.99,,,0.01,Acu-Link.com,2013-05-10 21:19:00,
2013-05-10 16:34:00,52.0,49.5,29.71,NW,315,0.0,-999.0,91,-99.99,,,0.01,Acu-Link.com,2013-05-10 21:34:00,
2013-05-10 16:49:00,51.8,49.0,29.71,NW,315,0.0,-999.0,90,-99.99,,,0.01,Acu-Link.com,2013-05-10 21:49:00,
2013-05-10 17:04:00,51.8,49.0,29.71,ESE,112,2.7,-999.0,90,-99.99,,,0.01,Acu-Link.com,2013-05-10 22:04:00,
2013-05-10 17:20:00,52.2,49.1,29.71,WNW,292,0.0,-999.0,89,-99.99,,,0.01,Acu-Link.com,2013-05-10 22:20:00,
2013-05-10 17:35:00,51.6,48.8,29.71,ESE,112,2.7,-999.0,90,-99.99,,,0.01,Acu-Link.com,2013-05-10 22:35:00,
2013-05-10 17:50:00,51.8,48.7,29.72,East,90,0.0,-999.0,89,-99.99,,,0.01,Acu-Link.com,2013-05-10 22:50:00,
2013-05-10 18:06:00,51.8,48.7,29.72,ESE,112,0.0,-999.0,89,-99.99,,,0.01,Acu-Link.com,2013-05-10 23:06:00,
2013-05-10 18:21:00,51.6,48.5,29.71,NE,45,0.0,-999.0,89,-99.99,,,0.01,Acu-Link.com,2013-05-10 23:21:00,
2013-05-10 18:36:00,51.6,48.8,29.72,ESE,112,1.1,-999.0,90,-99.99,,,0.01,Acu-Link.com,2013-05-10 23:36:00,
2013-05-10 18:52:00,51.8,49.0,29.73,West,270,0.0,-999.0,90,-99.99,,,0.01,Acu-Link.com,2013-05-10 23:52:00,
2013-05-10 19:07:00,51.4,48.3,29.74,ESE,112,0.0,-999.0,89,-99.99,,,0.01,Acu-Link.com,2013-05-11 00:07:00,
2013-05-10 19:22:00,51.4,48.6,29.74,ESE,112,0.0,-999.0,90,-99.99,,,0.01,Acu-Link.com,2013-05-11 00:22:00,
2013-05-10 19:37:00,51.3,48.5,29.74,ESE,112,0.0,-999.0,90,-99.99,,,0.01,Acu-Link.com,2013-05-11 00:37:00,
2013-05-10 19:53:00,51.3,48.8,29.74,SSE,157,0.0,-999.0,91,-99.99,,,0.01,Acu-Link.com,2013-05-11 00:53:00,
2013-05-10 20:08:00,50.9,48.7,29.74,WNW,292,0.0,-999.0,92,-99.99,,,0.01,Acu-Link.com,2013-05-11 01:08:00,
2013-05-10 20:23:00,50.9,48.9,29.74,ENE,67,4.7,-999.0,93,-99.99,,,0.01,Acu-Link.com,2013-05-11 01:23:00,
2013-05-10 20:38:00,50.5,48.6,29.74,ESE,112,0.0,-999.0,93,-99.99,,,0.01,Acu-Link.com,2013-05-11 01:38:00,
2013-05-10 20:54:00,50.5,48.6,29.74,WNW,292,0.0,-999.0,93,-99.99,,,0.01,Acu-Link.com,2013-05-11 01:54:00,
2013-05-10 21:09:00,50.4,48.7,29.75,NNW,337,0.0,-999.0,94,-99.99,,,0.01,Acu-Link.com,2013-05-11 02:09:00,
2013-05-10 21:24:00,50.4,48.2,29.75,East,90,0.0,-999.0,92,-99.99,,,0.01,Acu-Link.com,2013-05-11 02:24:00,
2013-05-10 21:40:00,50.4,48.2,29.75,East,90,0.0,-999.0,92,-99.99,,,0.01,Acu-Link.com,2013-05-11 02:40:00,
2013-05-10 21:55:00,50.2,48.0,29.75,SSE,157,0.0,-999.0,92,-99.99,,,0.01,Acu-Link.com,2013-05-11 02:55:00,
2013-05-10 22:10:00,50.2,48.0,29.75,ESE,112,0.0,-999.0,92,-99.99,,,0.01,Acu-Link.com,2013-05-11 03:10:00,
2013-05-10 22:25:00,50.2,48.0,29.75,ESE,112,0.0,-999.0,92,-99.99,,,0.01,Acu-Link.com,2013-05-11 03:25:00,
2013-05-10 22:40:00,50.0,47.8,29.75,ENE,67,0.0,-999.0,92,-99.99,,,0.01,Acu-Link.com,2013-05-11 03:40:00,
2013-05-10 22:56:00,49.8,47.3,29.75,East,90,0.0,-999.0,91,-99.99,,,0.01,Acu-Link.com,2013-05-11 03:56:00,
2013-05-10 23:11:00,49.6,47.1,29.74,SE,135,0.0,-999.0,91,-99.99,,,0.01,Acu-Link.com,2013-05-11 04:11:00,
2013-05-10 23:26:00,49.6,47.4,29.75,South,180,0.0,-999.0,92,-99.99,,,0.01,Acu-Link.com,2013-05-11 04:26:00,
2013-05-10 23:42:00,49.6,47.4,29.75,ESE,112,0.0,-999.0,92,-99.99,,,0.01,Acu-Link.com,2013-05-11 04:42:00,
2013-05-10 23:57:00,49.6,47.4,29.75,NE,45,3.2,-999.0,92,-99.99,,,0.01,Acu-Link.com,2013-05-11 04:57:00,